Time;durP1;ratioP1;P1;durP2;ratioP2;P2;SDS_P1;SDS_P2;PMS_P1;PMS_P2;Temp;Humidity;BMP_temperature;BMP_pressure;BME280_temperature;BME280_humidity;BME280_pressure;Samples;Min_cycle;Max_cycle;Signal;HPM_P1;HPM_P2
2023/12/26 00:01:09;;;;;;;1.02;0.70;;;;;;;;;;4961977;28;20293;-79
2023/12/26 00:03:35;;;;;;;3.00;0.50;;;;;;;;;;4984859;28;20333;-79
2023/12/26 00:06:00;;;;;;;0.82;0.50;;;;;;;;;;5032123;28;20186;-78
2023/12/26 00:08:26;;;;;;;0.47;0.45;;;;;;;;;;4998107;28;20197;-78
2023/12/26 00:10:51;;;;;;;0.65;0.50;;;;;;;;;;5015238;28;20468;-79
2023/12/26 00:13:17;;;;;;;1.27;0.63;;;;;;;;;;5013410;28;20186;-79
2023/12/26 00:15:42;;;;;;;0.80;0.50;;;;;;;;;;5010096;28;20194;-79
2023/12/26 00:18:08;;;;;;;0.63;0.35;;;;;;;;;;5000636;28;20228;-79
2023/12/26 00:20:34;;;;;;;0.85;0.47;;;;;;;;;;5038046;28;20678;-79
2023/12/26 00:22:59;;;;;;;0.30;0.30;;;;;;;;;;5019097;28;20201;-81
2023/12/26 00:25:25;;;;;;;0.40;0.40;;;;;;;;;;5042766;28;20190;-80
2023/12/26 00:27:50;;;;;;;0.22;0.22;;;;;;;;;;5017836;28;20182;-81
2023/12/26 00:30:16;;;;;;;0.20;0.20;;;;;;;;;;5025658;28;20197;-81
2023/12/26 00:32:41;;;;;;;0.20;0.20;;;;;;;;;;5015763;28;20576;-79
2023/12/26 00:35:07;;;;;;;0.20;0.20;;;;;;;;;;5037405;28;20213;-81
2023/12/26 00:37:34;;;;;;;0.90;0.40;;;;;;;;;;5033090;28;20194;-81
2023/12/26 00:39:59;;;;;;;0.47;0.32;;;;;;;;;;5017804;28;20592;-79
2023/12/26 00:42:25;;;;;;;0.22;0.22;;;;;;;;;;5012736;28;20243;-81
2023/12/26 00:44:50;;;;;;;0.30;0.30;;;;;;;;;;5000996;28;20185;-78
2023/12/26 00:47:16;;;;;;;1.30;0.40;;;;;;;;;;4997997;28;20189;-78
2023/12/26 00:49:41;;;;;;;1.35;0.47;;;;;;;;;;5013994;28;20613;-78
2023/12/26 00:52:07;;;;;;;0.50;0.50;;;;;;;;;;4992234;28;20190;-79
2023/12/26 00:54:32;;;;;;;2.42;0.50;;;;;;;;;;4998620;28;20271;-79
2023/12/26 00:56:58;;;;;;;0.50;0.50;;;;;;;;;;5024129;28;20198;-79
2023/12/26 00:59:23;;;;;;;0.45;0.40;;;;;;;;;;5017300;28;20190;-80
2023/12/26 01:01:49;;;;;;;2.35;0.80;;;;;;;;;;5014964;28;20265;-79
2023/12/26 01:04:14;;;;;;;0.85;0.50;;;;;;;;;;4994810;28;20214;-77
2023/12/26 01:06:41;;;;;;;1.05;0.63;;;;;;;;;;5025690;28;20192;-80
2023/12/26 01:09:07;;;;;;;0.52;0.50;;;;;;;;;;5000507;28;20478;-79
2023/12/26 01:11:33;;;;;;;1.77;0.50;;;;;;;;;;5016955;28;20547;-79
2023/12/26 01:13:58;;;;;;;0.73;0.32;;;;;;;;;;5021139;28;20214;-80
2023/12/26 01:16:27;;;;;;;0.90;0.60;;;;;;;;;;5028927;28;20275;-79
2023/12/26 01:18:55;;;;;;;1.92;0.43;;;;;;;;;;5033510;28;20658;-82
2023/12/26 01:21:20;;;;;;;1.02;0.40;;;;;;;;;;5023373;28;20185;-80
2023/12/26 01:23:46;;;;;;;0.80;0.40;;;;;;;;;;5022924;28;20210;-81
2023/12/26 01:26:11;;;;;;;1.17;0.40;;;;;;;;;;5003636;28;20198;-81
2023/12/26 01:28:38;;;;;;;1.67;0.60;;;;;;;;;;5014519;28;20269;-81
2023/12/26 01:31:03;;;;;;;1.17;0.57;;;;;;;;;;5013050;28;20178;-79
2023/12/26 01:33:29;;;;;;;1.42;0.55;;;;;;;;;;5010152;28;20190;-79
2023/12/26 01:35:55;;;;;;;0.30;0.30;;;;;;;;;;5015909;28;20183;-81
2023/12/26 01:38:20;;;;;;;0.95;0.40;;;;;;;;;;5019862;28;20198;-78
2023/12/26 01:40:46;;;;;;;1.85;0.57;;;;;;;;;;5023287;28;20739;-79
2023/12/26 01:43:11;;;;;;;2.05;0.43;;;;;;;;;;4996428;28;20704;-79
2023/12/26 01:45:38;;;;;;;0.88;0.40;;;;;;;;;;5001818;28;20194;-78
2023/12/26 01:48:04;;;;;;;2.35;0.75;;;;;;;;;;5023188;28;20209;-79
2023/12/26 01:50:30;;;;;;;0.90;0.40;;;;;;;;;;4998422;28;20594;-79
2023/12/26 01:52:56;;;;;;;0.75;0.45;;;;;;;;;;4998528;28;20244;-78
2023/12/26 01:55:22;;;;;;;4.88;0.50;;;;;;;;;;5032082;28;20264;-80
2023/12/26 01:57:49;;;;;;;0.43;0.30;;;;;;;;;;5019013;28;20186;-78
2023/12/26 02:00:15;;;;;;;2.50;0.75;;;;;;;;;;5011418;28;20189;-79
2023/12/26 02:02:42;;;;;;;4.55;1.05;;;;;;;;;;4993307;28;20587;-79
2023/12/26 02:05:08;;;;;;;1.25;0.50;;;;;;;;;;4999036;28;20230;-79
2023/12/26 02:07:34;;;;;;;1.65;0.47;;;;;;;;;;5031019;28;20183;-79
2023/12/26 02:10:02;;;;;;;2.22;0.65;;;;;;;;;;4994762;28;20178;-79
2023/12/26 02:12:28;;;;;;;1.95;0.40;;;;;;;;;;5042553;28;20189;-79
2023/12/26 02:14:54;;;;;;;2.78;0.80;;;;;;;;;;5016038;28;20192;-79
2023/12/26 02:17:25;;;;;;;1.65;0.70;;;;;;;;;;5038983;28;20729;-80
2023/12/26 02:19:51;;;;;;;0.60;0.60;;;;;;;;;;4989409;28;20222;-82
2023/12/26 02:22:19;;;;;;;2.90;0.80;;;;;;;;;;5000524;28;20663;-81
2023/12/26 02:24:47;;;;;;;1.42;0.60;;;;;;;;;;5003243;28;20218;-80
2023/12/26 02:27:25;;;;;;;2.30;0.75;;;;;;;;;;5030954;28;20294;-79
2023/12/26 02:29:53;;;;;;;2.75;0.40;;;;;;;;;;5015384;28;20191;-81
2023/12/26 02:32:24;;;;;;;0.88;0.47;;;;;;;;;;5008259;28;20275;-79
2023/12/26 02:34:54;;;;;;;2.65;0.40;;;;;;;;;;5002466;28;20186;-79
2023/12/26 02:37:24;;;;;;;1.70;0.50;;;;;;;;;;5002190;28;20195;-79
2023/12/26 02:39:50;;;;;;;2.13;0.22;;;;;;;;;;5032636;28;20202;-79
2023/12/26 02:42:20;;;;;;;1.98;0.40;;;;;;;;;;5012758;28;20266;-78
2023/12/26 02:44:46;;;;;;;3.00;0.63;;;;;;;;;;5000325;28;20575;-78
2023/12/26 02:47:12;;;;;;;1.83;0.50;;;;;;;;;;5020613;28;20190;-78
2023/12/26 02:49:37;;;;;;;1.55;0.40;;;;;;;;;;5013757;28;20580;-78
2023/12/26 02:52:03;;;;;;;4.53;0.50;;;;;;;;;;5012233;28;20278;-77
2023/12/26 02:54:28;;;;;;;2.83;0.70;;;;;;;;;;5000754;28;20273;-79
2023/12/26 02:56:54;;;;;;;5.55;0.68;;;;;;;;;;5008212;28;20191;-77
2023/12/26 02:59:19;;;;;;;3.42;0.50;;;;;;;;;;5014734;28;20297;-78
2023/12/26 03:01:45;;;;;;;5.13;0.63;;;;;;;;;;5005572;28;20187;-79
2023/12/26 03:04:11;;;;;;;3.47;0.60;;;;;;;;;;5012940;28;20211;-79
2023/12/26 03:06:36;;;;;;;5.38;0.82;;;;;;;;;;5011851;28;20201;-78
2023/12/26 03:09:02;;;;;;;6.05;0.85;;;;;;;;;;4992086;28;20195;-78
2023/12/26 03:11:27;;;;;;;3.28;0.77;;;;;;;;;;5021891;28;20191;-79
2023/12/26 03:13:53;;;;;;;3.67;0.70;;;;;;;;;;5014400;28;20190;-79
2023/12/26 03:16:20;;;;;;;1.52;0.55;;;;;;;;;;5017023;28;20278;-78
2023/12/26 03:18:46;;;;;;;5.38;0.50;;;;;;;;;;5007378;28;20213;-78
2023/12/26 03:21:12;;;;;;;3.38;0.70;;;;;;;;;;5015144;28;20277;-78
2023/12/26 03:23:37;;;;;;;3.08;0.43;;;;;;;;;;5034533;28;20507;-78
2023/12/26 03:26:03;;;;;;;5.03;0.75;;;;;;;;;;5028307;28;20237;-78
2023/12/26 03:28:28;;;;;;;4.70;0.80;;;;;;;;;;5000228;28;20267;-78
2023/12/26 03:30:54;;;;;;;5.63;1.00;;;;;;;;;;4997540;28;20193;-78
2023/12/26 03:33:19;;;;;;;4.53;0.63;;;;;;;;;;5025918;28;20199;-79
2023/12/26 03:35:45;;;;;;;6.07;0.70;;;;;;;;;;5014585;28;20203;-77
2023/12/26 03:38:10;;;;;;;5.35;1.02;;;;;;;;;;4998874;28;20650;-79
2023/12/26 03:40:36;;;;;;;9.95;1.50;;;;;;;;;;5001396;28;20193;-78
2023/12/26 03:43:01;;;;;;;6.22;1.00;;;;;;;;;;5015509;28;20209;-78
2023/12/26 03:45:28;;;;;;;5.20;1.17;;;;;;;;;;5022565;28;20288;-77
2023/12/26 03:47:54;;;;;;;6.53;1.10;;;;;;;;;;5030264;28;20220;-76
2023/12/26 03:50:20;;;;;;;10.57;1.75;;;;;;;;;;5032816;28;20248;-78
2023/12/26 03:52:46;;;;;;;6.20;1.13;;;;;;;;;;5007443;28;20177;-77
2023/12/26 03:55:14;;;;;;;6.30;1.20;;;;;;;;;;5030648;28;20198;-79
2023/12/26 03:57:41;;;;;;;6.22;0.93;;;;;;;;;;5030856;28;20171;-78
2023/12/26 04:00:08;;;;;;;10.50;1.35;;;;;;;;;;5011163;28;20194;-76
2023/12/26 04:02:34;;;;;;;9.23;1.50;;;;;;;;;;5027742;28;20217;-76
2023/12/26 04:05:00;;;;;;;7.18;1.30;;;;;;;;;;5028415;28;20190;-77
2023/12/26 04:07:25;;;;;;;11.52;1.80;;;;;;;;;;5025812;28;20194;-77
2023/12/26 04:09:50;;;;;;;9.80;1.35;;;;;;;;;;5026879;28;20657;-75
2023/12/26 04:12:16;;;;;;;16.08;1.55;;;;;;;;;;5028598;28;20545;-76
2023/12/26 04:14:41;;;;;;;3.97;1.25;;;;;;;;;;5011885;28;20618;-76
2023/12/26 04:17:07;;;;;;;9.65;1.05;;;;;;;;;;5029312;28;20194;-76
2023/12/26 04:19:32;;;;;;;6.47;1.15;;;;;;;;;;5012150;28;20663;-76
2023/12/26 04:21:58;;;;;;;6.97;1.50;;;;;;;;;;5007531;28;20470;-76
2023/12/26 04:24:23;;;;;;;6.65;1.02;;;;;;;;;;5038127;28;20222;-76
2023/12/26 04:26:48;;;;;;;7.93;1.10;;;;;;;;;;4999558;28;20195;-75
2023/12/26 04:29:14;;;;;;;6.53;1.25;;;;;;;;;;4989826;28;20210;-76
2023/12/26 04:31:39;;;;;;;3.35;0.93;;;;;;;;;;5002682;28;20526;-76
2023/12/26 04:34:05;;;;;;;4.07;1.00;;;;;;;;;;5009678;28;20207;-76
2023/12/26 04:36:35;;;;;;;4.97;1.08;;;;;;;;;;5008850;28;20198;-76
2023/12/26 04:39:01;;;;;;;6.05;1.00;;;;;;;;;;5008940;28;20194;-77
2023/12/26 04:41:26;;;;;;;9.27;1.33;;;;;;;;;;5007319;28;20191;-75
2023/12/26 04:43:52;;;;;;;8.45;1.23;;;;;;;;;;5008839;28;20222;-76
2023/12/26 04:46:20;;;;;;;6.70;1.08;;;;;;;;;;5003467;28;20187;-76
2023/12/26 04:48:46;;;;;;;9.27;1.23;;;;;;;;;;5008785;28;20306;-76
2023/12/26 04:51:16;;;;;;;3.53;0.70;;;;;;;;;;5007846;28;20179;-76
2023/12/26 04:53:42;;;;;;;8.00;1.23;;;;;;;;;;5008866;28;20182;-77
2023/12/26 04:56:07;;;;;;;7.13;0.98;;;;;;;;;;5004492;28;20187;-77
2023/12/26 04:58:33;;;;;;;9.30;1.23;;;;;;;;;;5009152;28;20272;-76
2023/12/26 05:00:59;;;;;;;7.78;1.27;;;;;;;;;;5006693;28;20446;-76
2023/12/26 05:03:25;;;;;;;7.03;1.20;;;;;;;;;;5007915;28;20656;-77
2023/12/26 05:05:51;;;;;;;6.53;1.08;;;;;;;;;;5006346;28;20611;-77
2023/12/26 05:08:16;;;;;;;7.78;0.98;;;;;;;;;;5029883;28;20627;-77
2023/12/26 05:10:42;;;;;;;11.95;2.45;;;;;;;;;;4989805;28;20249;-76
2023/12/26 05:13:07;;;;;;;11.02;2.17;;;;;;;;;;5003258;28;20684;-76
2023/12/26 05:15:35;;;;;;;5.57;1.27;;;;;;;;;;5021800;28;20189;-77
2023/12/26 05:18:03;;;;;;;11.93;1.60;;;;;;;;;;5007789;28;20318;-77
2023/12/26 05:20:28;;;;;;;7.82;1.30;;;;;;;;;;5014492;28;20320;-76
2023/12/26 05:22:54;;;;;;;7.40;1.02;;;;;;;;;;5017127;28;20214;-77
2023/12/26 05:25:19;;;;;;;11.27;1.60;;;;;;;;;;5007978;28;20199;-77
2023/12/26 05:27:45;;;;;;;9.40;1.75;;;;;;;;;;5018893;28;20190;-76
2023/12/26 05:30:11;;;;;;;6.25;1.30;;;;;;;;;;5009005;28;20198;-77
2023/12/26 05:32:36;;;;;;;9.88;1.20;;;;;;;;;;5010972;28;20249;-76
2023/12/26 05:35:02;;;;;;;4.18;0.80;;;;;;;;;;5007984;28;20186;-77
2023/12/26 05:37:27;;;;;;;12.05;1.60;;;;;;;;;;5006901;28;20179;-77
2023/12/26 05:39:53;;;;;;;9.70;1.05;;;;;;;;;;5006503;28;20203;-76
2023/12/26 05:42:18;;;;;;;5.80;0.90;;;;;;;;;;5011065;28;20187;-77
2023/12/26 05:44:44;;;;;;;9.98;1.15;;;;;;;;;;5007210;28;20182;-77
2023/12/26 05:47:10;;;;;;;6.07;1.15;;;;;;;;;;5008477;28;20242;-76
2023/12/26 05:49:35;;;;;;;7.75;0.98;;;;;;;;;;5004907;28;20610;-76
2023/12/26 05:52:00;;;;;;;4.97;1.10;;;;;;;;;;5008958;28;20261;-77
2023/12/26 05:54:26;;;;;;;9.32;1.50;;;;;;;;;;4995238;28;20360;-77
2023/12/26 05:56:51;;;;;;;7.05;1.10;;;;;;;;;;5007996;28;20217;-77
2023/12/26 05:59:17;;;;;;;4.50;0.80;;;;;;;;;;5019899;28;20548;-77
2023/12/26 06:01:46;;;;;;;9.35;0.98;;;;;;;;;;5022176;28;20541;-77
2023/12/26 06:04:12;;;;;;;8.05;1.10;;;;;;;;;;5006026;28;20273;-76
2023/12/26 06:06:37;;;;;;;8.80;1.60;;;;;;;;;;4995305;28;20287;-77
2023/12/26 06:09:03;;;;;;;7.30;1.52;;;;;;;;;;5013637;28;20191;-78
2023/12/26 06:11:28;;;;;;;9.88;0.88;;;;;;;;;;5008875;28;20222;-77
2023/12/26 06:13:54;;;;;;;6.40;1.17;;;;;;;;;;5005426;28;20195;-77
2023/12/26 06:16:20;;;;;;;7.25;0.80;;;;;;;;;;5028250;28;20199;-77
2023/12/26 06:18:45;;;;;;;9.35;1.48;;;;;;;;;;5011855;28;20226;-77
2023/12/26 06:21:11;;;;;;;6.00;0.82;;;;;;;;;;5010152;28;20179;-77
2023/12/26 06:23:36;;;;;;;6.28;0.98;;;;;;;;;;5009374;28;20360;-77
2023/12/26 06:26:02;;;;;;;8.07;0.60;;;;;;;;;;5004807;28;20194;-77
2023/12/26 06:28:27;;;;;;;8.30;0.93;;;;;;;;;;5002645;28;20194;-77
2023/12/26 06:30:53;;;;;;;9.15;1.23;;;;;;;;;;5030149;28;20230;-77
2023/12/26 06:33:19;;;;;;;7.10;1.10;;;;;;;;;;4993923;28;20218;-77
2023/12/26 06:35:45;;;;;;;5.45;1.20;;;;;;;;;;5011318;28;20193;-77
2023/12/26 06:38:13;;;;;;;12.43;1.63;;;;;;;;;;5024149;28;20190;-76
2023/12/26 06:40:39;;;;;;;12.13;1.33;;;;;;;;;;5003981;28;20278;-77
2023/12/26 06:43:10;;;;;;;8.63;1.90;;;;;;;;;;5016252;28;20199;-77
2023/12/26 06:45:36;;;;;;;14.43;1.60;;;;;;;;;;5010051;28;20198;-76
2023/12/26 06:48:01;;;;;;;12.13;1.80;;;;;;;;;;4993420;28;20278;-77
2023/12/26 06:50:27;;;;;;;8.75;1.25;;;;;;;;;;5009131;28;20207;-77
2023/12/26 06:52:52;;;;;;;8.15;1.50;;;;;;;;;;5016337;28;20186;-78
2023/12/26 06:55:17;;;;;;;15.02;1.83;;;;;;;;;;5004554;28;20198;-78
2023/12/26 06:57:43;;;;;;;15.50;1.65;;;;;;;;;;5028902;28;20282;-77
2023/12/26 07:00:09;;;;;;;10.98;1.15;;;;;;;;;;5002434;28;20205;-77
2023/12/26 07:02:34;;;;;;;10.48;1.27;;;;;;;;;;5011050;28;20183;-78
2023/12/26 07:05:00;;;;;;;8.68;1.20;;;;;;;;;;5011614;28;20219;-77
2023/12/26 07:07:25;;;;;;;8.20;1.20;;;;;;;;;;5026026;28;20210;-78
2023/12/26 07:09:51;;;;;;;11.05;1.38;;;;;;;;;;5010872;28;20241;-79
2023/12/26 07:12:17;;;;;;;9.80;1.75;;;;;;;;;;5021221;28;20187;-77
2023/12/26 07:14:42;;;;;;;7.40;1.52;;;;;;;;;;4999865;28;20237;-77
2023/12/26 07:17:08;;;;;;;8.68;1.55;;;;;;;;;;5013547;28;20202;-78
2023/12/26 07:19:33;;;;;;;9.52;1.17;;;;;;;;;;5012636;28;20800;-78
2023/12/26 07:21:59;;;;;;;10.02;1.55;;;;;;;;;;5011239;28;20765;-79
2023/12/26 07:24:24;;;;;;;9.25;1.52;;;;;;;;;;5014106;28;20709;-79
2023/12/26 07:26:50;;;;;;;9.85;1.95;;;;;;;;;;5012110;28;20606;-79
2023/12/26 07:29:15;;;;;;;8.55;1.60;;;;;;;;;;4998187;28;20206;-78
2023/12/26 07:31:41;;;;;;;11.38;1.70;;;;;;;;;;4991499;28;20197;-77
2023/12/26 07:34:09;;;;;;;9.30;1.35;;;;;;;;;;5005880;28;20183;-78
2023/12/26 07:36:35;;;;;;;7.55;1.33;;;;;;;;;;5010950;28;20190;-77
2023/12/26 07:39:00;;;;;;;9.77;2.13;;;;;;;;;;5001097;28;20191;-78
2023/12/26 07:41:26;;;;;;;16.35;2.42;;;;;;;;;;5010059;28;20265;-78
2023/12/26 07:43:52;;;;;;;10.80;2.05;;;;;;;;;;4995353;28;20210;-78
2023/12/26 07:46:18;;;;;;;11.02;2.15;;;;;;;;;;5011355;28;20769;-79
2023/12/26 07:48:43;;;;;;;6.10;1.55;;;;;;;;;;5011045;28;20250;-78
2023/12/26 07:51:12;;;;;;;12.90;1.65;;;;;;;;;;5011137;28;20214;-78
2023/12/26 07:53:38;;;;;;;13.65;1.50;;;;;;;;;;5013182;28;20187;-79
2023/12/26 07:56:03;;;;;;;9.20;1.58;;;;;;;;;;4997062;28;20233;-79
2023/12/26 07:58:30;;;;;;;12.43;2.03;;;;;;;;;;5011806;28;20186;-77
2023/12/26 08:00:55;;;;;;;9.95;1.50;;;;;;;;;;5018509;28;20538;-77
2023/12/26 08:03:21;;;;;;;14.18;1.48;;;;;;;;;;5008477;28;20210;-79
2023/12/26 08:05:46;;;;;;;10.95;1.63;;;;;;;;;;5021175;28;20328;-78
2023/12/26 08:08:12;;;;;;;12.18;1.67;;;;;;;;;;5002346;28;20206;-78
2023/12/26 08:10:38;;;;;;;8.43;1.75;;;;;;;;;;4991997;28;20319;-78
2023/12/26 08:13:04;;;;;;;14.55;1.63;;;;;;;;;;5002788;28;20191;-78
2023/12/26 08:15:30;;;;;;;11.13;1.48;;;;;;;;;;5002460;28;20226;-77
2023/12/26 08:17:55;;;;;;;12.68;1.50;;;;;;;;;;5010166;28;20202;-78
2023/12/26 08:20:22;;;;;;;12.75;2.00;;;;;;;;;;5007849;28;20235;-78
2023/12/26 08:22:48;;;;;;;8.82;1.50;;;;;;;;;;5008729;28;20203;-77
2023/12/26 08:25:14;;;;;;;10.70;1.33;;;;;;;;;;5008462;28;20182;-77
2023/12/26 08:27:40;;;;;;;10.82;1.45;;;;;;;;;;5013388;28;20187;-78
2023/12/26 08:30:07;;;;;;;11.18;2.10;;;;;;;;;;5008946;28;20674;-78
2023/12/26 08:32:33;;;;;;;11.48;1.73;;;;;;;;;;4996548;28;20195;-78
2023/12/26 08:34:59;;;;;;;12.45;1.80;;;;;;;;;;5022248;28;20199;-78
2023/12/26 08:37:25;;;;;;;8.85;1.50;;;;;;;;;;4997017;28;20187;-77
2023/12/26 08:39:50;;;;;;;16.13;1.85;;;;;;;;;;5004766;28;20248;-78
2023/12/26 08:42:16;;;;;;;10.70;1.45;;;;;;;;;;5003961;28;20253;-77
2023/12/26 08:44:41;;;;;;;10.70;1.40;;;;;;;;;;5001088;28;20312;-77
2023/12/26 08:47:07;;;;;;;10.60;1.80;;;;;;;;;;4995962;28;20234;-77
2023/12/26 08:49:32;;;;;;;11.77;2.03;;;;;;;;;;4991431;28;20198;-77
2023/12/26 08:51:58;;;;;;;13.55;1.60;;;;;;;;;;5007860;28;20256;-77
2023/12/26 08:54:23;;;;;;;12.45;2.25;;;;;;;;;;5005786;28;20187;-78
2023/12/26 08:56:49;;;;;;;11.63;2.20;;;;;;;;;;4988129;28;20225;-76
2023/12/26 08:59:15;;;;;;;12.50;2.00;;;;;;;;;;4996151;28;20210;-77
2023/12/26 09:01:40;;;;;;;11.15;1.35;;;;;;;;;;5001511;28;20191;-77
2023/12/26 09:04:06;;;;;;;12.88;1.80;;;;;;;;;;5011203;28;20222;-77
2023/12/26 09:06:32;;;;;;;12.27;2.72;;;;;;;;;;5004055;28;20191;-78
2023/12/26 09:08:58;;;;;;;13.52;2.55;;;;;;;;;;5009704;28;20608;-77
2023/12/26 09:11:23;;;;;;;12.60;1.80;;;;;;;;;;5005231;28;20594;-77
2023/12/26 09:13:49;;;;;;;10.15;1.92;;;;;;;;;;5008617;28;20278;-77
2023/12/26 09:16:14;;;;;;;13.73;1.90;;;;;;;;;;5008733;28;20244;-77
2023/12/26 09:18:41;;;;;;;8.82;1.50;;;;;;;;;;5005483;28;20238;-77
2023/12/26 09:21:06;;;;;;;9.48;1.42;;;;;;;;;;5029248;28;20678;-76
2023/12/26 09:23:32;;;;;;;10.65;1.95;;;;;;;;;;5011317;28;20241;-77
2023/12/26 09:25:57;;;;;;;10.00;1.50;;;;;;;;;;4993809;28;20275;-78
2023/12/26 09:28:23;;;;;;;7.97;1.50;;;;;;;;;;4996514;28;20257;-77
2023/12/26 09:30:48;;;;;;;11.60;1.48;;;;;;;;;;5025769;28;20186;-78
2023/12/26 09:33:14;;;;;;;14.38;1.48;;;;;;;;;;5031602;28;20642;-77
2023/12/26 09:35:40;;;;;;;18.13;2.72;;;;;;;;;;5013827;28;20319;-76
2023/12/26 09:38:05;;;;;;;10.60;1.70;;;;;;;;;;5015869;28;20224;-76
2023/12/26 09:40:31;;;;;;;8.85;1.58;;;;;;;;;;5032522;28;20277;-76
2023/12/26 09:43:01;;;;;;;13.18;2.25;;;;;;;;;;5023479;28;20209;-78
2023/12/26 09:45:27;;;;;;;7.95;2.05;;;;;;;;;;5016278;28;20687;-78
2023/12/26 09:47:53;;;;;;;11.30;1.70;;;;;;;;;;5009321;28;20214;-77
2023/12/26 09:50:20;;;;;;;9.25;1.52;;;;;;;;;;5015795;28;20182;-77
2023/12/26 09:52:52;;;;;;;12.75;2.05;;;;;;;;;;5033303;28;20186;-76
2023/12/26 09:55:19;;;;;;;11.02;1.85;;;;;;;;;;5031040;28;20201;-77
2023/12/26 09:57:45;;;;;;;11.70;1.77;;;;;;;;;;5016102;28;20530;-77
2023/12/26 10:00:11;;;;;;;13.18;1.88;;;;;;;;;;5027359;28;20182;-76
2023/12/26 10:02:36;;;;;;;15.27;1.75;;;;;;;;;;4996887;28;20197;-77
2023/12/26 10:05:02;;;;;;;14.40;1.98;;;;;;;;;;5029304;28;20197;-76
2023/12/26 10:07:28;;;;;;;9.75;1.55;;;;;;;;;;5015883;28;20193;-77
2023/12/26 10:09:54;;;;;;;13.90;1.85;;;;;;;;;;5012564;28;21750;-76
2023/12/26 10:12:19;;;;;;;11.23;1.67;;;;;;;;;;5006143;28;20714;-77
2023/12/26 10:14:45;;;;;;;11.98;2.00;;;;;;;;;;5030356;28;20186;-77
2023/12/26 10:17:12;;;;;;;15.98;1.92;;;;;;;;;;5034450;28;20182;-76
2023/12/26 10:19:38;;;;;;;16.40;1.85;;;;;;;;;;5029507;28;20325;-77
2023/12/26 10:22:03;;;;;;;11.75;2.15;;;;;;;;;;5032275;28;20269;-78
2023/12/26 10:24:29;;;;;;;15.27;1.80;;;;;;;;;;5014121;28;20224;-77
2023/12/26 10:26:55;;;;;;;15.70;2.00;;;;;;;;;;5022112;28;20182;-78
2023/12/26 10:29:21;;;;;;;11.32;1.75;;;;;;;;;;5019997;28;20194;-76
2023/12/26 10:31:46;;;;;;;8.48;2.15;;;;;;;;;;5017868;28;20261;-76
2023/12/26 10:34:16;;;;;;;15.60;2.30;;;;;;;;;;5015276;28;20178;-78
2023/12/26 10:36:49;;;;;;;12.40;1.25;;;;;;;;;;5013251;28;20597;-78
2023/12/26 10:39:15;;;;;;;14.93;1.83;;;;;;;;;;5034510;28;20182;-77
2023/12/26 10:41:44;;;;;;;11.27;1.60;;;;;;;;;;5032059;28;20197;-77
2023/12/26 10:44:10;;;;;;;13.45;2.42;;;;;;;;;;5027040;28;20689;-78
2023/12/26 10:46:36;;;;;;;15.35;3.08;;;;;;;;;;5014001;28;20293;-77
2023/12/26 10:49:04;;;;;;;12.93;2.30;;;;;;;;;;5015451;28;20502;-77
2023/12/26 10:51:31;;;;;;;11.32;1.73;;;;;;;;;;5028182;28;20503;-76
2023/12/26 10:54:04;;;;;;;9.45;1.63;;;;;;;;;;5029577;28;20605;-78
2023/12/26 10:56:32;;;;;;;16.48;2.20;;;;;;;;;;5028332;28;20194;-77
2023/12/26 10:58:58;;;;;;;10.85;1.75;;;;;;;;;;5030162;28;20280;-77
2023/12/26 13:51:48;;;;;;;15.10;2.20;;;;;;;;;;5011046;28;20190;-77
2023/12/26 13:55:05;;;;;;;11.68;1.77;;;;;;;;;;5008556;28;20189;-77
2023/12/26 13:58:08;;;;;;;9.68;1.30;;;;;;;;;;5025226;28;20614;-77
2023/12/26 14:01:11;;;;;;;10.15;1.95;;;;;;;;;;5019032;28;20803;-77
2023/12/26 14:04:15;;;;;;;10.38;2.00;;;;;;;;;;4664037;28;10000447;-76
2023/12/26 14:07:20;;;;;;;9.23;1.65;;;;;;;;;;5017798;28;20198;-75
2023/12/26 14:10:23;;;;;;;10.27;1.98;;;;;;;;;;5006421;28;20733;-77
2023/12/26 14:13:25;;;;;;;10.05;1.90;;;;;;;;;;4998373;28;20198;-77
2023/12/26 14:16:29;;;;;;;9.73;2.20;;;;;;;;;;4990882;28;20920;-77
2023/12/26 14:19:32;;;;;;;11.60;2.47;;;;;;;;;;4987571;28;20659;-77
2023/12/26 14:22:35;;;;;;;10.80;2.05;;;;;;;;;;5000942;28;20217;-77
2023/12/26 14:25:38;;;;;;;10.27;1.98;;;;;;;;;;4992168;28;20242;-77
2023/12/26 14:28:42;;;;;;;13.07;2.17;;;;;;;;;;5014928;28;20202;-77
2023/12/26 14:31:45;;;;;;;8.65;1.95;;;;;;;;;;4994154;28;20187;-78
2023/12/26 14:34:48;;;;;;;11.02;2.22;;;;;;;;;;5010882;28;20740;-78
2023/12/26 14:37:51;;;;;;;12.88;3.55;;;;;;;;;;5007471;28;20191;-77
2023/12/26 14:40:56;;;;;;;13.55;2.42;;;;;;;;;;5009788;28;20206;-78
2023/12/26 14:43:59;;;;;;;11.02;2.08;;;;;;;;;;5010333;28;20250;-78
2023/12/26 14:47:02;;;;;;;10.52;2.13;;;;;;;;;;5008154;28;20741;-77
2023/12/26 14:50:05;;;;;;;8.95;3.08;;;;;;;;;;4999376;28;20191;-77
2023/12/26 14:53:08;;;;;;;15.60;2.80;;;;;;;;;;5020444;28;20604;-78
2023/12/26 14:56:12;;;;;;;6.80;2.08;;;;;;;;;;5004275;28;20202;-77
2023/12/26 14:59:15;;;;;;;9.80;2.03;;;;;;;;;;5012731;28;20194;-76
2023/12/26 15:01:54;;;;;;;12.07;2.10;;;;;;;;;;5003444;28;20290;-76
2023/12/26 15:04:20;;;;;;;7.70;1.70;;;;;;;;;;4988551;28;20207;-77
2023/12/26 15:06:45;;;;;;;7.90;2.15;;;;;;;;;;5009580;28;20198;-77
2023/12/26 15:09:12;;;;;;;11.07;2.10;;;;;;;;;;5005616;28;20611;-76
2023/12/26 15:11:38;;;;;;;10.18;2.30;;;;;;;;;;5011204;28;20194;-76
2023/12/26 15:14:03;;;;;;;14.60;2.10;;;;;;;;;;4992384;28;20233;-76
2023/12/26 15:16:29;;;;;;;10.73;1.83;;;;;;;;;;5004217;28;20197;-76
2023/12/26 15:18:55;;;;;;;8.80;1.48;;;;;;;;;;5000688;28;20241;-77
2023/12/26 15:21:21;;;;;;;8.18;1.63;;;;;;;;;;5010568;28;20272;-76
2023/12/26 15:23:49;;;;;;;5.95;1.10;;;;;;;;;;5014526;28;20267;-76
2023/12/26 15:26:15;;;;;;;4.82;1.25;;;;;;;;;;5030688;28;20603;-79
2023/12/26 15:28:42;;;;;;;7.20;1.08;;;;;;;;;;5021787;28;20198;-77
2023/12/26 15:31:12;;;;;;;7.03;1.70;;;;;;;;;;5025647;28;20208;-77
2023/12/26 15:33:39;;;;;;;9.38;2.63;;;;;;;;;;5012936;28;20232;-76
2023/12/26 15:36:05;;;;;;;12.27;2.67;;;;;;;;;;4999750;28;20214;-76
2023/12/26 15:38:31;;;;;;;9.30;1.67;;;;;;;;;;5022554;28;20700;-80
2023/12/26 15:40:57;;;;;;;6.47;1.85;;;;;;;;;;5024566;28;20220;-76
2023/12/26 15:43:22;;;;;;;7.32;1.55;;;;;;;;;;5023790;28;20199;-77
2023/12/26 15:45:48;;;;;;;11.05;2.15;;;;;;;;;;4986525;28;20189;-79
2023/12/26 15:48:13;;;;;;;7.40;1.70;;;;;;;;;;5015658;28;20272;-77
2023/12/26 15:50:39;;;;;;;8.65;1.85;;;;;;;;;;5011010;28;20187;-77
2023/12/26 15:53:04;;;;;;;5.53;1.20;;;;;;;;;;5012328;28;20216;-77
2023/12/26 15:55:30;;;;;;;9.60;1.83;;;;;;;;;;5016989;28;20586;-77
2023/12/26 15:57:55;;;;;;;8.38;2.25;;;;;;;;;;5010187;28;20187;-77
2023/12/26 16:00:21;;;;;;;11.23;1.37;;;;;;;;;;5016240;28;20244;-77
2023/12/26 16:02:46;;;;;;;10.80;1.70;;;;;;;;;;5005552;28;20634;-77
2023/12/26 16:05:12;;;;;;;11.98;1.75;;;;;;;;;;5021069;28;20186;-78
2023/12/26 16:07:37;;;;;;;10.77;2.28;;;;;;;;;;5009748;28;20683;-77
2023/12/26 16:10:03;;;;;;;13.75;2.05;;;;;;;;;;5002845;28;20655;-77
2023/12/26 16:12:28;;;;;;;7.90;1.40;;;;;;;;;;5009627;28;20263;-77
2023/12/26 16:14:53;;;;;;;11.25;1.33;;;;;;;;;;5012356;28;20510;-77
2023/12/26 16:17:19;;;;;;;9.07;1.80;;;;;;;;;;5014057;28;20218;-77
2023/12/26 16:19:44;;;;;;;9.65;1.70;;;;;;;;;;5009501;28;20227;-78
2023/12/26 16:22:10;;;;;;;11.35;2.28;;;;;;;;;;5027807;28;20228;-77
2023/12/26 16:24:36;;;;;;;10.68;2.40;;;;;;;;;;5012613;28;20781;-77
2023/12/26 16:27:02;;;;;;;7.57;1.55;;;;;;;;;;4997175;28;20189;-78
2023/12/26 16:29:27;;;;;;;10.80;2.70;;;;;;;;;;5012122;28;20202;-77
2023/12/26 16:31:52;;;;;;;10.32;1.73;;;;;;;;;;5021347;28;20829;-77
2023/12/26 16:34:18;;;;;;;13.98;1.80;;;;;;;;;;5010461;28;20606;-77
2023/12/26 16:36:47;;;;;;;9.15;2.22;;;;;;;;;;5019903;28;20711;-77
2023/12/26 16:39:12;;;;;;;22.63;7.18;;;;;;;;;;4994945;28;20705;-77
2023/12/26 16:41:38;;;;;;;14.10;7.10;;;;;;;;;;5030462;28;20206;-77
2023/12/26 16:44:09;;;;;;;23.70;10.45;;;;;;;;;;5029724;28;20244;-77
2023/12/26 16:46:35;;;;;;;13.38;4.70;;;;;;;;;;5029966;28;20236;-77
2023/12/26 16:49:00;;;;;;;18.88;9.35;;;;;;;;;;5011359;28;20565;-77
2023/12/26 16:51:26;;;;;;;19.77;6.30;;;;;;;;;;5010264;28;20291;-77
2023/12/26 16:53:51;;;;;;;15.88;6.57;;;;;;;;;;5005324;28;20216;-77
2023/12/26 16:56:17;;;;;;;14.57;4.85;;;;;;;;;;5011969;28;20670;-78
2023/12/26 16:58:43;;;;;;;13.23;3.58;;;;;;;;;;5019523;28;20574;-77
2023/12/26 17:01:09;;;;;;;10.13;4.10;;;;;;;;;;5012250;28;20271;-77
2023/12/26 17:03:37;;;;;;;5.80;1.80;;;;;;;;;;5029125;28;20218;-77
2023/12/26 17:06:03;;;;;;;6.45;1.73;;;;;;;;;;5010122;28;20645;-78
2023/12/26 17:08:28;;;;;;;7.18;2.72;;;;;;;;;;5026068;28;20196;-77
2023/12/26 17:10:54;;;;;;;10.88;2.67;;;;;;;;;;5012798;28;20277;-77
2023/12/26 17:13:19;;;;;;;10.60;2.67;;;;;;;;;;5020545;28;20641;-77
2023/12/26 17:15:45;;;;;;;5.60;2.20;;;;;;;;;;5021879;28;20555;-77
2023/12/26 17:18:10;;;;;;;11.65;2.63;;;;;;;;;;5013723;28;20280;-77
2023/12/26 17:20:36;;;;;;;14.15;5.15;;;;;;;;;;4995174;28;20225;-77
2023/12/26 17:23:02;;;;;;;9.43;3.70;;;;;;;;;;5005793;28;20245;-78
2023/12/26 17:25:27;;;;;;;13.45;4.38;;;;;;;;;;5005788;28;20248;-78
2023/12/26 17:27:53;;;;;;;8.38;3.20;;;;;;;;;;5022818;28;20643;-78
2023/12/26 17:30:19;;;;;;;10.02;3.13;;;;;;;;;;5018010;28;20622;-78
2023/12/26 17:32:45;;;;;;;9.55;3.00;;;;;;;;;;5025089;28;20624;-78
2023/12/26 17:35:11;;;;;;;14.43;3.35;;;;;;;;;;5011316;28;20178;-78